• Join FlightAware (Why Join?)
  • Login
  • US Flag 
11:23PM EDT


 

Airport Tracker/Info


-or-


 

Live Flight TrackerFlight Track Log ✈ CLH1267 ✈ 21-Apr-2013 ✈ LOWG / GRZ - EDDF / FRA

Flight Track Log - Related Links

Times and Time Zones

All times are in EDT time to prevent confusion due to time zone crossing. See the CLH1267 flight status page for this flight to view local times or setup timezone preferences in your user account.

Time Position Orientation Groundspeed Altitude Reporting Facility
EDT Latitude Longitude Course Direction KTS MPH feet Rate Location/Type
12:07AM 47.2591 14.8963 306° West  Level Estimated
12:08AM 47.3257 14.7597 306° West  Level Estimated
12:09AM 47.3922 14.6226 306° West  Level Estimated
12:10AM 47.4585 14.4853 306° West  Level Estimated
12:11AM 47.5246 14.3476 305° West  Level Estimated
12:12AM 47.5906 14.2095 305° West  Level Estimated
12:13AM 47.6564 14.0711 305° West  Level Estimated
12:14AM 47.7220 13.9323 305° West  Level Estimated
12:15AM 47.7874 13.7932 305° West  Level Estimated
12:16AM 47.8527 13.6538 305° West  Level Estimated
12:17AM 47.9106 13.5295 305° West  Level Estimated
12:18AM 47.9684 13.4050 305° West  Level Estimated
12:19AM 48.0260 13.2801 305° West  Level Estimated
12:20AM 48.0835 13.1550 305° West  Level Estimated
12:21AM 48.1408 13.0296 304° West  Level Estimated
12:22AM 48.1981 12.9040 304° West  Level Estimated
12:23AM 48.2551 12.7781 304° West  Level Estimated
12:24AM 48.3121 12.6518 304° West  Level Estimated
12:25AM 48.3689 12.5253 304° West  Level Estimated
12:26AM 48.4255 12.3986 304° West  Level Estimated
12:27AM 48.4821 12.2715 304° West  Level Estimated
12:28AM 48.5384 12.1441 304° West  Level Estimated
12:29AM 48.5947 12.0165 304° West  Level Estimated
12:30AM 48.6508 11.8886 304° West  Level Estimated
12:31AM 48.7067 11.7604 304° West  Level Estimated
12:32AM 48.7626 11.6319 303° West  Level Estimated
12:33AM 48.8182 11.5031 303° West  Level Estimated
12:34AM 48.8737 11.3741 303° West  Level Estimated
12:35AM 48.9291 11.2448 303° West  Level Estimated
12:36AM 48.9844 11.1151 303° West  Level Estimated
12:37AM 49.0395 10.9852 303° West  Level Estimated
12:38AM 49.0944 10.8550 303° West  Level Estimated
12:39AM 49.1492 10.7245 303° West  Level Estimated
12:40AM 49.2039 10.5937 303° West  Level Estimated
12:41AM 49.2584 10.4627 303° West  Level Estimated
12:42AM 49.3127 10.3313 302° West  Level Estimated
12:43AM 49.3669 10.1996 302° West  Level Estimated
12:44AM 49.4210 10.0677 302° West  Level Estimated
12:45AM 49.4749 9.9355 302° West  Level Estimated
12:46AM 49.5287 9.8030 302° West  Level Estimated
12:47AM 49.5823 9.6701 302° West  Level Estimated
12:48AM 49.6357 9.5371 302° West  Level Estimated
12:49AM 49.6890 9.4037 302° West  Level Estimated
12:50AM 49.7422 9.2700 302° West  Level Estimated
12:51AM 49.7952 9.1360 302° West  Level Estimated
12:52AM 49.8480 9.0017 301° West  Level Estimated
12:53AM 49.9007 8.8671 301° West  Level Estimated
12:54AM 49.9532 8.7323 301° West  Level Estimated
12:55AM 50.0056 8.5971 301° West  Level Estimated
12:56AM 50.0264 8.5431 301° West  Level Estimated
12:57AM 50.0264 8.5431 73° East  Level Estimated
12:58AM 50.0264 8.5431 73° East  Level Estimated
12:59AM 50.0264 8.5431 73° East  Level Estimated
01:00AM 50.0264 8.5431 73° East  Level Estimated
01:01AM 50.0264 8.5431 73° East  Level Estimated
01:02AM 50.0264 8.5431 73° East  Level Estimated
01:03AM 50.0264 8.5431 73° East  Level Estimated
01:04AM 50.0264 8.5431 73° East  Level Estimated
01:05AM 50.0264 8.5431 73° East  Level Estimated
01:06AM 50.0264 8.5431 73° East  Level Estimated
01:07AM 50.0264 8.5431 73° East  Level Estimated
01:08AM 50.0264 8.5431 73° East  Level Estimated
01:09AM 50.0264 8.5431 73° East  Level Estimated
01:10AM 50.0264 8.5431 73° East  Level Estimated
01:11AM 50.0264 8.5431 73° East  Level Estimated
01:12AM 50.0264 8.5431 73° East  Level Estimated
01:13AM 50.0264 8.5431 73° East  Level Estimated